Time;durP1;ratioP1;P1;durP2;ratioP2;P2;SDS_P1;SDS_P2;PMS_P1;PMS_P2;Temp;Humidity;BMP_temperature;BMP_pressure;BME280_temperature;BME280_humidity;BME280_pressure;Samples;Min_cycle;Max_cycle;Signal;HPM_P1;HPM_P2
2021/08/22 00:01:28;;;;;;;3.35;2.65;;;25.30;68.20;;;;;;4991088;28;88416;-14
2021/08/22 00:03:53;;;;;;;3.28;2.80;;;25.30;68.10;;;;;;4991673;28;88815;-21
2021/08/22 00:06:19;;;;;;;3.10;2.80;;;25.30;68.20;;;;;;4992136;28;88372;-21
2021/08/22 00:08:45;;;;;;;3.15;2.85;;;25.30;68.10;;;;;;4992541;28;86995;-19
2021/08/22 00:11:10;;;;;;;3.15;2.80;;;25.30;68.10;;;;;;4992287;28;88534;-16
2021/08/22 00:13:36;;;;;;;3.63;2.72;;;25.30;68.20;;;;;;4991847;28;87867;-16
2021/08/22 00:16:02;;;;;;;3.30;2.97;;;25.30;68.20;;;;;;4992703;28;89138;-20
2021/08/22 00:18:28;;;;;;;2.65;2.45;;;25.20;68.10;;;;;;4992389;28;87850;-16
2021/08/22 00:20:54;;;;;;;4.30;3.28;;;25.20;68.10;;;;;;4990496;28;90349;-22
2021/08/22 00:23:20;;;;;;;3.72;2.90;;;25.20;68.10;;;;;;4991448;28;88960;-17
2021/08/22 00:25:46;;;;;;;3.67;3.28;;;25.20;68.10;;;;;;4986062;28;87827;-17
2021/08/22 00:28:11;;;;;;;3.90;2.90;;;25.20;68.10;;;;;;4991390;28;87085;-26
2021/08/22 00:30:38;;;;;;;4.07;2.80;;;25.20;68.10;;;;;;4992388;28;88158;-20
2021/08/22 00:33:03;;;;;;;3.20;2.90;;;25.20;68.10;;;;;;4991281;28;90518;-23
2021/08/22 00:35:29;;;;;;;3.95;3.10;;;25.20;68.10;;;;;;4990665;28;88319;-20
2021/08/22 00:37:56;;;;;;;2.90;2.58;;;25.20;68.10;;;;;;4991029;28;88060;-22
2021/08/22 00:40:21;;;;;;;3.75;2.85;;;25.20;68.60;;;;;;4989695;28;90572;-16
2021/08/22 00:42:47;;;;;;;2.70;2.40;;;25.20;68.10;;;;;;4990685;28;88495;-14
2021/08/22 00:45:14;;;;;;;3.40;2.97;;;25.20;68.10;;;;;;4991438;28;87977;-22
2021/08/22 00:47:40;;;;;;;2.92;2.63;;;25.20;68.00;;;;;;4991578;28;87613;-17
2021/08/22 00:50:06;;;;;;;3.85;2.95;;;25.20;68.00;;;;;;4991077;28;87985;-19
2021/08/22 00:52:33;;;;;;;2.67;2.28;;;25.20;68.00;;;;;;4991490;28;89059;-36
2021/08/22 00:55:04;;;;;;;4.00;3.13;;;25.30;68.10;;;;;;4992105;28;87798;-14
2021/08/22 00:57:30;;;;;;;3.75;2.78;;;25.20;68.00;;;;;;4991292;28;90158;-25
2021/08/22 01:00:07;;;;;;;3.17;2.88;;;25.20;68.00;;;;;;4989176;28;91338;-15
2021/08/22 01:02:35;;;;;;;3.33;2.60;;;25.20;68.00;;;;;;4990988;28;87592;-17
2021/08/22 01:05:30;;;;;;;4.15;2.88;;;25.20;68.00;;;;;;4988925;28;89076;-17
2021/08/22 01:08:05;;;;;;;3.97;2.55;;;25.20;67.90;;;;;;4990224;28;90249;-16
2021/08/22 01:10:33;;;;;;;2.90;2.50;;;25.30;68.00;;;;;;4989253;28;91083;-15
2021/08/22 01:13:07;;;;;;;3.65;2.78;;;25.20;67.90;;;;;;4990916;28;87504;-23
2021/08/22 01:15:36;;;;;;;3.67;3.03;;;25.20;67.80;;;;;;4991384;28;87642;-16
2021/08/22 01:18:03;;;;;;;2.88;2.38;;;25.20;67.80;;;;;;4990114;28;88402;-17
2021/08/22 01:20:35;;;;;;;4.10;2.60;;;25.20;67.80;;;;;;4990907;28;87937;-15
2021/08/22 01:23:03;;;;;;;3.78;3.10;;;25.20;67.80;;;;;;4990043;28;87827;-14
2021/08/22 01:25:31;;;;;;;3.08;2.75;;;25.20;67.80;;;;;;4991135;28;88011;-16
2021/08/22 01:27:57;;;;;;;2.70;2.40;;;25.20;67.70;;;;;;4991748;28;87852;-18
2021/08/22 01:30:22;;;;;;;3.40;2.92;;;25.20;67.70;;;;;;4991171;28;88711;-19
2021/08/22 01:32:50;;;;;;;3.00;2.35;;;25.20;67.80;;;;;;4991224;28;88261;-17
2021/08/22 01:35:22;;;;;;;2.92;2.63;;;25.20;67.70;;;;;;4991354;28;87785;-20
2021/08/22 01:37:49;;;;;;;3.15;2.63;;;25.20;67.70;;;;;;4991181;28;88087;-22
2021/08/22 01:40:20;;;;;;;3.00;2.70;;;25.20;67.70;;;;;;4990786;28;88339;-20
2021/08/22 01:42:47;;;;;;;4.07;2.90;;;25.20;67.70;;;;;;4971951;28;89869;-15
2021/08/22 01:45:18;;;;;;;3.22;2.42;;;25.20;67.70;;;;;;4991601;28;87762;-18
2021/08/22 01:47:45;;;;;;;3.80;2.97;;;25.20;67.70;;;;;;4991458;28;86897;-19
2021/08/22 01:50:12;;;;;;;2.53;2.30;;;25.20;67.70;;;;;;4990658;28;87911;-17
2021/08/22 01:52:38;;;;;;;3.10;2.72;;;25.20;67.70;;;;;;4989508;28;88012;-21
2021/08/22 01:55:05;;;;;;;2.72;2.53;;;25.20;67.70;;;;;;4989906;28;88894;-16
2021/08/22 01:57:32;;;;;;;3.08;2.35;;;25.20;67.70;;;;;;4990234;28;88569;-17
2021/08/22 01:59:58;;;;;;;4.22;2.90;;;25.20;67.70;;;;;;5005797;28;88465;-15
2021/08/22 02:02:24;;;;;;;3.03;2.67;;;25.20;67.70;;;;;;4990444;28;88737;-14
2021/08/22 02:04:58;;;;;;;3.25;2.95;;;25.40;67.80;;;;;;4990254;28;87668;-16
2021/08/22 02:07:29;;;;;;;2.55;2.35;;;25.10;67.60;;;;;;4990827;28;87745;-21
2021/08/22 02:10:08;;;;;;;3.22;2.70;;;25.20;67.70;;;;;;4990669;28;87603;-18
2021/08/22 02:12:34;;;;;;;3.00;2.60;;;25.10;67.70;;;;;;4990489;28;87240;-19
2021/08/22 02:15:08;;;;;;;3.72;2.60;;;25.10;67.70;;;;;;4990359;28;87770;-16
2021/08/22 02:17:38;;;;;;;3.70;2.83;;;25.10;67.70;;;;;;4990098;28;88057;-21
2021/08/22 02:20:05;;;;;;;3.83;2.65;;;25.10;67.70;;;;;;4990577;28;88964;-15
2021/08/22 02:22:32;;;;;;;2.95;2.40;;;25.10;67.70;;;;;;4990349;28;88426;-20
2021/08/22 02:25:00;;;;;;;3.42;2.75;;;25.10;67.70;;;;;;4990601;28;87610;-19
2021/08/22 02:27:30;;;;;;;2.92;2.50;;;25.10;67.70;;;;;;4990898;28;87921;-15
2021/08/22 02:29:56;;;;;;;3.03;2.72;;;25.10;67.70;;;;;;4990924;28;87657;-18
2021/08/22 02:32:23;;;;;;;2.85;2.55;;;25.10;67.70;;;;;;4990444;28;87932;-16
2021/08/22 02:34:50;;;;;;;2.80;2.55;;;25.10;67.70;;;;;;4990512;28;87860;-14
2021/08/22 02:37:16;;;;;;;2.97;2.55;;;25.10;67.80;;;;;;4990799;28;87020;-24
2021/08/22 02:39:41;;;;;;;2.95;2.38;;;25.10;67.80;;;;;;4990422;28;88164;-16
2021/08/22 02:42:07;;;;;;;2.95;2.65;;;25.30;67.90;;;;;;4989728;28;87745;-19
2021/08/22 02:44:33;;;;;;;3.13;2.75;;;25.10;67.80;;;;;;4988046;28;89013;-19
2021/08/22 02:46:59;;;;;;;4.20;2.65;;;25.10;67.80;;;;;;4990066;28;87958;-15
2021/08/22 02:49:25;;;;;;;3.10;2.55;;;25.10;67.80;;;;;;4989391;28;89408;-17
2021/08/22 02:51:51;;;;;;;3.00;2.35;;;25.00;67.70;;;;;;4990205;28;87263;-16
2021/08/22 02:54:16;;;;;;;2.75;2.53;;;25.10;67.80;;;;;;4990117;28;87850;-20
2021/08/22 02:56:42;;;;;;;2.78;2.55;;;25.10;67.80;;;;;;4990759;28;88128;-14
2021/08/22 02:59:08;;;;;;;2.83;2.53;;;25.00;67.80;;;;;;4990176;28;87837;-16
2021/08/22 03:01:33;;;;;;;3.13;2.47;;;25.00;67.80;;;;;;4990445;28;87593;-27
2021/08/22 03:03:59;;;;;;;2.75;2.40;;;25.10;67.80;;;;;;4988559;28;88280;-19
2021/08/22 03:06:25;;;;;;;3.63;2.90;;;25.10;67.80;;;;;;4989788;28;87727;-15
2021/08/22 03:08:51;;;;;;;2.88;2.50;;;25.10;67.80;;;;;;4988117;28;91802;-14
2021/08/22 03:11:18;;;;;;;2.78;2.53;;;25.00;67.70;;;;;;4989728;28;88351;-16
2021/08/22 03:13:45;;;;;;;2.40;2.20;;;24.90;67.70;;;;;;4989904;28;87867;-16
2021/08/22 03:16:11;;;;;;;3.50;2.75;;;25.00;67.70;;;;;;4989758;28;88144;-14
2021/08/22 03:18:36;;;;;;;2.60;2.40;;;25.00;67.80;;;;;;4988592;28;88404;-14
2021/08/22 03:21:02;;;;;;;3.55;2.70;;;25.00;67.70;;;;;;4989849;28;87794;-15
2021/08/22 03:23:28;;;;;;;2.80;2.50;;;25.00;67.70;;;;;;4989338;28;88171;-17
2021/08/22 03:25:54;;;;;;;2.60;2.40;;;25.00;67.70;;;;;;4990432;28;87109;-18
2021/08/22 03:28:20;;;;;;;2.70;2.50;;;25.00;67.70;;;;;;4990149;28;88434;-17
2021/08/22 03:30:46;;;;;;;3.10;2.70;;;25.00;67.70;;;;;;4990060;28;87291;-18
2021/08/22 03:33:12;;;;;;;2.58;2.33;;;25.00;67.70;;;;;;4989193;28;88946;-23
2021/08/22 03:35:38;;;;;;;3.00;2.55;;;25.00;67.70;;;;;;4989027;28;88020;-15
2021/08/22 03:38:03;;;;;;;2.65;2.45;;;25.00;67.70;;;;;;4989170;28;88048;-16
2021/08/22 03:40:29;;;;;;;3.45;2.50;;;25.00;67.70;;;;;;4989906;28;88064;-14
2021/08/22 03:42:55;;;;;;;3.38;2.47;;;25.00;67.70;;;;;;4987607;28;87950;-15
2021/08/22 03:45:20;;;;;;;2.55;2.28;;;25.00;67.70;;;;;;4989375;28;87974;-16
2021/08/22 03:47:46;;;;;;;3.17;2.20;;;24.90;67.70;;;;;;4989592;28;88407;-17
2021/08/22 03:50:16;;;;;;;4.10;2.75;;;25.00;67.70;;;;;;4990258;28;87326;-15
2021/08/22 03:52:41;;;;;;;2.60;2.40;;;25.00;67.80;;;;;;4987749;28;87130;-23
2021/08/22 03:55:07;;;;;;;2.35;2.15;;;25.00;67.80;;;;;;4989124;28;88390;-15
2021/08/22 03:57:33;;;;;;;2.97;2.53;;;25.00;67.80;;;;;;4988510;28;89174;-20
2021/08/22 03:59:58;;;;;;;2.53;2.33;;;25.00;67.70;;;;;;4987590;28;89761;-15
2021/08/22 04:02:24;;;;;;;2.97;2.67;;;25.00;67.70;;;;;;4990117;28;88075;-14
2021/08/22 04:04:50;;;;;;;2.58;2.38;;;25.00;67.70;;;;;;4991211;28;88112;-21
2021/08/22 04:07:16;;;;;;;2.83;2.42;;;24.90;67.60;;;;;;4989732;28;91180;-15
2021/08/22 04:09:41;;;;;;;3.05;2.75;;;25.00;67.70;;;;;;4991721;28;87436;-16
2021/08/22 04:12:07;;;;;;;3.25;2.80;;;25.00;67.70;;;;;;4991930;28;87753;-16
2021/08/22 04:14:33;;;;;;;3.30;2.75;;;24.90;67.70;;;;;;4991376;28;86972;-15
2021/08/22 04:16:58;;;;;;;3.40;2.50;;;24.90;67.70;;;;;;4990986;28;88634;-18
2021/08/22 04:19:24;;;;;;;2.78;2.30;;;24.90;67.70;;;;;;4991353;28;87868;-16
2021/08/22 04:21:50;;;;;;;2.72;2.50;;;25.00;67.70;;;;;;4992403;28;88062;-17
2021/08/22 04:24:16;;;;;;;2.80;2.50;;;24.90;67.70;;;;;;4992268;28;87099;-17
2021/08/22 04:26:42;;;;;;;3.28;2.60;;;24.90;67.70;;;;;;4992327;28;87504;-17
2021/08/22 04:29:10;;;;;;;3.00;2.47;;;24.90;67.70;;;;;;4992157;28;87975;-21
2021/08/22 04:31:36;;;;;;;3.25;2.58;;;25.00;67.70;;;;;;4992101;28;87003;-15
2021/08/22 04:34:02;;;;;;;2.50;2.30;;;24.90;67.70;;;;;;4992148;28;88087;-15
2021/08/22 04:36:28;;;;;;;4.00;2.50;;;24.90;67.70;;;;;;4992122;28;88655;-16
2021/08/22 04:38:53;;;;;;;2.72;2.50;;;24.90;67.70;;;;;;4992814;28;87558;-16
2021/08/22 04:41:20;;;;;;;3.13;2.53;;;24.90;67.70;;;;;;4992639;28;88071;-24
2021/08/22 04:43:46;;;;;;;2.60;2.40;;;24.90;67.70;;;;;;4991693;28;88104;-15
2021/08/22 04:46:13;;;;;;;2.67;2.47;;;24.90;67.70;;;;;;4990438;28;89910;-15
2021/08/22 04:48:39;;;;;;;2.80;2.38;;;24.90;67.70;;;;;;4990955;28;88838;-22
2021/08/22 04:51:05;;;;;;;3.00;2.70;;;24.90;67.70;;;;;;4991836;28;88325;-14
2021/08/22 04:53:32;;;;;;;2.70;2.50;;;24.90;67.70;;;;;;4991627;28;87985;-15
2021/08/22 04:55:57;;;;;;;3.35;2.60;;;24.90;67.70;;;;;;4991594;28;88194;-20
2021/08/22 04:58:23;;;;;;;2.97;2.67;;;24.90;67.70;;;;;;4991580;28;87562;-15
2021/08/22 05:00:49;;;;;;;2.58;2.38;;;24.90;67.70;;;;;;4991701;28;87027;-18
2021/08/22 05:03:14;;;;;;;2.72;2.53;;;24.90;67.80;;;;;;4990891;28;87509;-15
2021/08/22 05:05:40;;;;;;;2.50;2.30;;;24.90;67.70;;;;;;4990510;28;87251;-19
2021/08/22 05:08:06;;;;;;;2.72;2.13;;;24.90;67.80;;;;;;4990444;28;87564;-17
2021/08/22 05:10:31;;;;;;;3.10;2.80;;;24.90;67.80;;;;;;4990367;28;89027;-16
2021/08/22 05:12:57;;;;;;;2.60;2.40;;;24.80;67.80;;;;;;4990821;28;88226;-15
2021/08/22 05:15:23;;;;;;;2.67;2.47;;;24.90;67.80;;;;;;4972927;28;91871;-16
2021/08/22 05:17:48;;;;;;;3.58;2.50;;;24.90;67.80;;;;;;4991809;28;87828;-21
2021/08/22 05:20:14;;;;;;;2.63;2.40;;;24.90;67.80;;;;;;4991856;28;87953;-15
2021/08/22 05:22:40;;;;;;;3.95;2.65;;;24.90;67.80;;;;;;4990275;28;88244;-15
2021/08/22 05:25:06;;;;;;;2.97;2.38;;;24.90;67.80;;;;;;4990518;28;87884;-16
2021/08/22 05:27:32;;;;;;;3.10;2.60;;;24.90;67.70;;;;;;4989184;28;87250;-16
2021/08/22 05:29:58;;;;;;;2.80;2.42;;;24.90;67.70;;;;;;4990781;28;87548;-22
2021/08/22 05:32:23;;;;;;;4.43;2.33;;;24.90;67.60;;;;;;4989902;28;88142;-18
2021/08/22 05:34:49;;;;;;;5.65;2.55;;;24.90;67.60;;;;;;4988271;28;90180;-16
2021/08/22 05:37:15;;;;;;;3.08;2.72;;;24.90;67.60;;;;;;4989072;28;90111;-18
2021/08/22 05:39:41;;;;;;;2.72;2.45;;;24.90;67.60;;;;;;4989921;28;87263;-18
2021/08/22 05:42:08;;;;;;;2.75;2.30;;;24.90;67.60;;;;;;4989073;28;89851;-15
2021/08/22 05:44:34;;;;;;;6.82;3.05;;;25.00;67.60;;;;;;4991592;28;87765;-15
2021/08/22 05:47:00;;;;;;;4.75;3.00;;;25.00;67.90;;;;;;4989426;28;89322;-15
2021/08/22 05:49:25;;;;;;;4.03;3.50;;;25.00;68.00;;;;;;4991125;28;88324;-21
2021/08/22 05:51:51;;;;;;;3.97;2.97;;;25.10;68.10;;;;;;4990106;28;87934;-16
2021/08/22 05:54:17;;;;;;;4.55;3.05;;;25.10;68.10;;;;;;4989162;28;90648;-15
2021/08/22 05:56:42;;;;;;;3.92;3.10;;;25.10;68.10;;;;;;4990862;28;88411;-16
2021/08/22 05:59:08;;;;;;;3.90;3.25;;;25.20;68.20;;;;;;4990541;28;88485;-19
2021/08/22 06:01:33;;;;;;;3.53;2.15;;;25.10;67.90;;;;;;4989699;28;88257;-15
2021/08/22 06:03:59;;;;;;;4.15;2.97;;;25.10;67.70;;;;;;4990081;28;88167;-23
2021/08/22 06:06:25;;;;;;;3.90;3.05;;;25.20;67.70;;;;;;4990727;28;87820;-15
2021/08/22 06:08:51;;;;;;;4.32;2.47;;;25.20;67.60;;;;;;4989582;28;87193;-15
2021/08/22 06:11:16;;;;;;;3.97;3.05;;;25.10;67.50;;;;;;4991271;28;88214;-15
2021/08/22 06:13:42;;;;;;;3.65;3.25;;;25.20;67.50;;;;;;4991142;28;88247;-15
2021/08/22 06:16:07;;;;;;;3.20;2.90;;;25.20;67.50;;;;;;4991661;28;87425;-16
2021/08/22 06:18:33;;;;;;;3.75;3.35;;;25.20;67.80;;;;;;4990945;28;87964;-16
2021/08/22 06:20:59;;;;;;;4.13;3.15;;;25.20;67.90;;;;;;4989335;28;89576;-19
2021/08/22 06:23:24;;;;;;;3.53;3.03;;;25.20;68.00;;;;;;4987177;28;90692;-15
2021/08/22 06:25:50;;;;;;;4.93;2.95;;;25.20;68.00;;;;;;4989257;28;88366;-20
2021/08/22 06:28:16;;;;;;;4.55;3.08;;;25.10;67.80;;;;;;4990819;28;87966;-14
2021/08/22 06:30:42;;;;;;;5.00;3.35;;;25.20;68.30;;;;;;4990235;28;87715;-16
2021/08/22 06:33:09;;;;;;;7.18;3.47;;;25.20;67.40;;;;;;4990669;28;88183;-16
2021/08/22 06:35:35;;;;;;;7.18;4.22;;;25.20;67.40;;;;;;4989826;28;88047;-17
2021/08/22 06:38:01;;;;;;;5.65;3.45;;;25.20;67.50;;;;;;4989629;28;88182;-19
2021/08/22 06:40:26;;;;;;;16.40;5.18;;;25.20;67.40;;;;;;4991016;28;87623;-15
2021/08/22 06:42:52;;;;;;;17.55;5.80;;;25.30;67.40;;;;;;4987188;28;89687;-16
2021/08/22 06:45:17;;;;;;;11.80;5.68;;;25.20;67.30;;;;;;4987440;28;89084;-16
2021/08/22 06:47:52;;;;;;;14.45;5.47;;;25.20;67.30;;;;;;4989702;28;88907;-16
2021/08/22 06:50:18;;;;;;;;;;;25.20;67.20;;;;;;4989034;28;87127;-22
2021/08/22 06:52:44;;;;;;;15.23;6.72;;;25.10;67.00;;;;;;4980060;28;89729;-19
2021/08/22 06:55:10;;;;;;;17.45;5.82;;;25.20;66.90;;;;;;4988363;28;89461;-18
2021/08/22 06:57:35;;;;;;;15.80;5.93;;;25.10;67.30;;;;;;4989291;28;87235;-20
2021/08/22 07:00:01;;;;;;;16.33;6.50;;;25.10;66.40;;;;;;4922501;28;88142;-15
2021/08/22 07:02:27;;;;;;;13.63;6.00;;;25.10;66.00;;;;;;4977830;28;89125;-15
2021/08/22 07:04:52;;;;;;;13.18;5.72;;;25.20;66.10;;;;;;4987995;28;88830;-18
2021/08/22 07:07:18;;;;;;;14.93;5.32;;;25.10;66.20;;;;;;4988343;28;87235;-18
2021/08/22 07:09:44;;;;;;;9.35;5.07;;;25.10;66.00;;;;;;4989316;28;87806;-23
2021/08/22 07:12:09;;;;;;;11.35;4.68;;;25.10;65.50;;;;;;4989194;28;89058;-22
2021/08/22 07:14:35;;;;;;;8.98;5.00;;;25.10;64.90;;;;;;4987870;28;90208;-18
2021/08/22 07:17:01;;;;;;;9.23;4.50;;;25.10;64.70;;;;;;4989225;28;88461;-23
2021/08/22 07:19:28;;;;;;;8.95;3.97;;;25.10;64.40;;;;;;4989734;28;87227;-15
2021/08/22 07:21:57;;;;;;;8.85;3.85;;;25.10;64.10;;;;;;4988817;28;87613;-16
2021/08/22 07:24:22;;;;;;;9.13;4.20;;;25.10;64.00;;;;;;4988210;28;87663;-18
2021/08/22 07:26:48;;;;;;;8.35;3.40;;;25.10;64.10;;;;;;4988741;28;88439;-17
2021/08/22 07:29:14;;;;;;;9.15;3.97;;;25.10;63.90;;;;;;4987881;28;86602;-15
2021/08/22 07:31:39;;;;;;;9.90;4.53;;;25.00;63.70;;;;;;4989005;28;87558;-34
2021/08/22 07:34:05;;;;;;;14.02;6.20;;;25.00;63.50;;;;;;4989830;28;87648;-15
2021/08/22 07:36:31;;;;;;;12.63;5.55;;;25.00;63.50;;;;;;4988939;28;88390;-15
2021/08/22 07:38:56;;;;;;;20.25;7.50;;;25.00;63.40;;;;;;4991142;28;88163;-15
2021/08/22 07:41:22;;;;;;;14.35;6.15;;;25.00;63.40;;;;;;4989202;28;88294;-16
2021/08/22 07:43:48;;;;;;;16.30;6.15;;;25.00;63.30;;;;;;4992084;28;87157;-21
2021/08/22 07:46:13;;;;;;;11.05;6.20;;;25.00;63.40;;;;;;4992508;28;87623;-15
2021/08/22 07:48:39;;;;;;;13.85;5.30;;;25.00;63.60;;;;;;4992700;28;87915;-16
2021/08/22 07:51:07;;;;;;;12.18;5.72;;;25.00;63.40;;;;;;4992437;28;88062;-15
2021/08/22 07:53:36;;;;;;;9.02;4.82;;;25.20;63.80;;;;;;4992494;28;89357;-16
2021/08/22 07:56:04;;;;;;;11.07;5.13;;;24.90;63.50;;;;;;4992465;28;88337;-18
2021/08/22 07:58:29;;;;;;;5.80;4.15;;;25.10;63.70;;;;;;4993780;28;87187;-19
2021/08/22 08:00:55;;;;;;;12.68;5.10;;;25.10;63.30;;;;;;4993276;28;91465;-19
2021/08/22 08:03:21;;;;;;;7.07;4.53;;;25.10;63.30;;;;;;4991287;28;91916;-16
2021/08/22 08:05:47;;;;;;;11.43;4.60;;;25.10;63.10;;;;;;4991701;28;87756;-16
2021/08/22 08:08:12;;;;;;;10.63;5.05;;;25.10;63.30;;;;;;4992379;28;88070;-19
2021/08/22 08:10:38;;;;;;;7.82;4.20;;;25.10;63.30;;;;;;4994895;28;87552;-15
2021/08/22 08:13:03;;;;;;;8.15;4.32;;;25.10;63.20;;;;;;4992637;28;87800;-14
2021/08/22 08:15:29;;;;;;;12.15;4.80;;;25.10;63.20;;;;;;4994622;28;87500;-16
2021/08/22 08:17:54;;;;;;;8.23;4.85;;;25.10;63.40;;;;;;4994395;28;86945;-18
2021/08/22 08:20:20;;;;;;;9.05;4.60;;;25.10;63.50;;;;;;4993456;28;88897;-16
2021/08/22 08:22:46;;;;;;;9.18;4.75;;;25.10;63.60;;;;;;4991137;28;90347;-22
2021/08/22 08:25:11;;;;;;;10.75;4.93;;;25.10;63.70;;;;;;4992134;28;88554;-19
2021/08/22 08:27:37;;;;;;;8.05;4.80;;;25.10;63.90;;;;;;4991357;28;90277;-17
2021/08/22 08:30:04;;;;;;;8.07;5.05;;;25.10;64.30;;;;;;4987223;28;90569;-26
2021/08/22 08:32:29;;;;;;;10.65;5.07;;;25.10;64.60;;;;;;4992357;28;89332;-16
2021/08/22 08:34:55;;;;;;;10.10;5.50;;;25.20;64.70;;;;;;4992052;28;87466;-16
2021/08/22 08:37:20;;;;;;;10.10;5.63;;;25.20;64.80;;;;;;4991938;28;88183;-17
2021/08/22 08:39:46;;;;;;;9.57;4.93;;;25.20;65.00;;;;;;4990504;28;92379;-19
2021/08/22 08:42:36;;;;;;;10.90;5.80;;;25.20;64.90;;;;;;4990713;28;86766;-21
2021/08/22 08:45:01;;;;;;;11.85;5.95;;;25.20;65.00;;;;;;4989359;28;88803;-31
2021/08/22 08:47:28;;;;;;;9.55;5.25;;;25.20;65.40;;;;;;4989293;28;88290;-15
2021/08/22 08:50:00;;;;;;;9.00;4.95;;;25.20;65.50;;;;;;4987271;28;90102;-18
2021/08/22 08:52:40;;;;;;;9.70;5.03;;;25.20;65.50;;;;;;4990595;28;89748;-16
2021/08/22 08:55:29;;;;;;;10.93;5.10;;;25.20;65.60;;;;;;4991234;28;87759;-14
2021/08/22 08:57:57;;;;;;;9.40;4.45;;;25.40;65.80;;;;;;4991981;28;87907;-19
2021/08/22 09:00:33;;;;;;;10.63;5.10;;;25.30;65.90;;;;;;4991592;28;88263;-17
2021/08/22 09:03:00;;;;;;;9.80;4.85;;;25.30;65.80;;;;;;4990622;28;87601;-19
2021/08/22 09:05:46;;;;;;;8.35;4.60;;;25.40;65.70;;;;;;4991354;28;88118;-19
2021/08/22 09:08:30;;;;;;;12.77;4.60;;;25.30;65.80;;;;;;4991583;28;87014;-14
2021/08/22 09:11:29;;;;;;;11.88;4.25;;;25.30;65.70;;;;;;4992122;28;87822;-15
2021/08/22 09:14:30;;;;;;;6.90;4.15;;;25.30;65.80;;;;;;4991555;28;87159;-16
2021/08/22 09:17:33;;;;;;;6.95;4.05;;;25.30;65.70;;;;;;4991648;28;89520;-16
2021/08/22 09:20:37;;;;;;;12.20;4.65;;;25.30;65.50;;;;;;4989475;28;87959;-28
2021/08/22 09:23:36;;;;;;;10.73;3.95;;;25.30;65.60;;;;;;4989947;28;91806;-22
2021/08/22 09:26:33;;;;;;;9.13;4.13;;;25.30;65.60;;;;;;4991008;28;88313;-16
2021/08/22 09:29:23;;;;;;;7.97;4.25;;;25.20;65.50;;;;;;4991185;28;87195;-19
2021/08/22 09:32:26;;;;;;;63.42;19.33;;;25.30;65.80;;;;;;4991113;28;87490;-16
2021/08/22 09:35:17;;;;;;;46.97;12.87;;;25.30;66.30;;;;;;4988616;28;90902;-17
2021/08/22 09:38:40;;;;;;;38.05;11.85;;;25.20;66.20;;;;;;4989169;28;90488;-16
2021/08/22 09:41:42;;;;;;;35.25;9.98;;;25.20;66.10;;;;;;4943173;28;88434;-21
2021/08/22 09:44:42;;;;;;;23.80;7.82;;;25.10;66.00;;;;;;4990025;28;89758;-18
2021/08/22 09:47:44;;;;;;;26.05;7.68;;;25.20;65.90;;;;;;4988501;28;91834;-15
2021/08/22 09:50:29;;;;;;;26.08;8.95;;;25.20;65.50;;;;;;4989043;28;91234;-14
2021/08/22 09:53:32;;;;;;;24.08;8.13;;;25.20;65.50;;;;;;4990669;28;88113;-18
2021/08/22 09:56:25;;;;;;;28.23;8.95;;;25.20;65.70;;;;;;4991054;28;87881;-15
2021/08/22 09:59:00;;;;;;;29.85;8.63;;;25.20;65.90;;;;;;4990422;28;87743;-15
2021/08/22 10:01:50;;;;;;;21.25;8.27;;;25.20;65.90;;;;;;4989274;28;87369;-16
2021/08/22 10:04:31;;;;;;;21.52;7.75;;;25.20;65.70;;;;;;4990428;28;88062;-19
2021/08/22 10:07:06;;;;;;;20.85;7.18;;;25.20;65.60;;;;;;4991190;28;86690;-16
2021/08/22 10:09:34;;;;;;;21.17;6.95;;;25.20;65.30;;;;;;4990306;28;89863;-15
2021/08/22 10:12:01;;;;;;;20.10;6.20;;;25.20;65.30;;;;;;4990175;28;88343;-18
2021/08/22 10:14:28;;;;;;;15.50;5.72;;;25.20;65.10;;;;;;4990791;28;88693;-15
2021/08/22 10:16:55;;;;;;;15.05;6.00;;;25.20;64.80;;;;;;4990757;28;88044;-24
2021/08/22 10:19:27;;;;;;;16.88;5.63;;;25.30;64.80;;;;;;4987435;28;91441;-18
2021/08/22 10:22:31;;;;;;;15.55;4.82;;;25.40;64.80;;;;;;4989268;28;87905;-15
2021/08/22 10:25:00;;;;;;;12.40;5.10;;;25.30;64.60;;;;;;4986300;28;88355;-17
2021/08/22 10:27:47;;;;;;;10.93;4.57;;;25.30;64.60;;;;;;4990106;28;87964;-17
2021/08/22 10:30:17;;;;;;;17.25;4.93;;;25.30;64.30;;;;;;4990191;28;88092;-16
2021/08/22 10:32:58;;;;;;;14.60;4.85;;;25.30;64.20;;;;;;4991069;28;87460;-17
2021/08/22 10:35:31;;;;;;;10.88;4.35;;;25.30;64.20;;;;;;4989093;28;87824;-16
2021/08/22 10:38:23;;;;;;;14.30;4.25;;;25.30;64.00;;;;;;4989610;28;89371;-14
2021/08/22 10:40:49;;;;;;;13.10;4.13;;;25.30;63.90;;;;;;4987074;28;89216;-24
2021/08/22 10:43:17;;;;;;;9.10;3.75;;;25.30;63.70;;;;;;4989293;28;91176;-21
2021/08/22 10:45:43;;;;;;;9.82;3.75;;;25.30;63.50;;;;;;4990690;28;87991;-20
2021/08/22 10:48:24;;;;;;;9.93;4.30;;;25.40;63.60;;;;;;4987341;28;88580;-18
2021/08/22 10:50:59;;;;;;;10.43;3.72;;;25.30;64.00;;;;;;4989620;28;88184;-14
2021/08/22 10:53:30;;;;;;;9.00;3.10;;;25.30;63.60;;;;;;4989732;28;90530;-16
2021/08/22 10:55:57;;;;;;;10.27;3.72;;;25.30;63.70;;;;;;4989399;28;87937;-24
2021/08/22 10:59:00;;;;;;;8.82;3.40;;;25.40;63.80;;;;;;4990445;28;87039;-15
2021/08/22 11:01:28;;;;;;;6.07;3.13;;;25.40;63.90;;;;;;4988303;28;89422;-16
2021/08/22 11:04:09;;;;;;;5.85;2.80;;;25.30;64.10;;;;;;4990862;28;88174;-16
2021/08/22 11:06:37;;;;;;;6.80;3.00;;;25.30;64.20;;;;;;4989981;28;88644;-18
2021/08/22 11:09:03;;;;;;;8.25;3.10;;;25.30;64.30;;;;;;4989316;28;88044;-16
2021/08/22 11:11:29;;;;;;;9.55;3.33;;;25.30;64.40;;;;;;4989492;28;88016;-17
2021/08/22 11:13:59;;;;;;;8.75;3.13;;;25.30;64.50;;;;;;4992914;28;87804;-18
2021/08/22 11:16:40;;;;;;;6.85;2.88;;;25.20;64.50;;;;;;4990369;28;87417;-16
2021/08/22 11:19:06;;;;;;;6.68;2.80;;;25.30;64.70;;;;;;4993640;28;88206;-15
2021/08/22 11:21:32;;;;;;;7.85;3.00;;;25.30;64.60;;;;;;4991388;28;89978;-20
2021/08/22 11:24:01;;;;;;;8.18;2.75;;;25.30;64.60;;;;;;4992775;28;91494;-15
2021/08/22 11:26:28;;;;;;;6.47;3.00;;;25.30;64.50;;;;;;4993705;28;88411;-21
2021/08/22 11:28:56;;;;;;;8.88;3.20;;;25.30;64.50;;;;;;4991981;28;88216;-16
2021/08/22 11:31:21;;;;;;;8.45;3.40;;;25.40;64.50;;;;;;4991622;28;88937;-17
2021/08/22 11:33:47;;;;;;;6.65;3.08;;;25.30;64.50;;;;;;4992857;28;88254;-14
2021/08/22 11:36:13;;;;;;;6.60;3.10;;;25.40;64.60;;;;;;4992810;28;87166;-15
2021/08/22 11:38:39;;;;;;;8.73;3.70;;;25.30;64.60;;;;;;4993822;28;87896;-21
2021/08/22 11:41:04;;;;;;;7.82;3.10;;;25.40;64.70;;;;;;4992837;28;88115;-21
2021/08/22 11:43:31;;;;;;;7.72;3.42;;;25.40;64.70;;;;;;4992170;28;88285;-19
2021/08/22 11:45:58;;;;;;;7.85;3.33;;;25.40;64.70;;;;;;4993058;28;87816;-14
2021/08/22 11:48:27;;;;;;;9.02;3.50;;;25.40;65.30;;;;;;4993004;28;86878;-17
2021/08/22 11:51:00;;;;;;;7.57;3.60;;;25.30;64.70;;;;;;4992396;28;87825;-15
2021/08/22 11:53:30;;;;;;;6.25;3.65;;;25.30;64.80;;;;;;4993136;28;87856;-15
2021/08/22 11:55:56;;;;;;;8.60;3.13;;;25.30;64.80;;;;;;4992815;28;88119;-17
2021/08/22 11:58:22;;;;;;;9.32;3.40;;;25.40;65.00;;;;;;4992821;28;87965;-18
2021/08/22 12:00:52;;;;;;;6.13;3.33;;;25.30;64.90;;;;;;4991364;28;88292;-24
2021/08/22 12:03:23;;;;;;;10.30;3.67;;;25.40;65.00;;;;;;4992423;28;88541;-18
2021/08/22 12:06:05;;;;;;;7.03;3.50;;;25.40;65.10;;;;;;4992122;28;88192;-24
2021/08/22 12:08:32;;;;;;;7.15;3.63;;;25.40;65.00;;;;;;4992970;28;88142;-16
2021/08/22 12:11:05;;;;;;;8.73;3.80;;;25.40;65.10;;;;;;4991874;28;89353;-16
2021/08/22 12:13:31;;;;;;;7.43;3.72;;;25.30;65.10;;;;;;4993933;28;88151;-15
2021/08/22 12:15:57;;;;;;;8.80;3.55;;;25.30;65.30;;;;;;4993197;28;87082;-15
2021/08/22 12:18:30;;;;;;;8.60;3.42;;;25.30;65.30;;;;;;4991513;28;89782;-17
2021/08/22 12:21:04;;;;;;;6.18;3.30;;;25.30;65.30;;;;;;4992526;28;89162;-17
2021/08/22 12:23:32;;;;;;;5.55;3.28;;;25.40;65.40;;;;;;4990452;28;92098;-15
2021/08/22 12:26:27;;;;;;;7.05;3.38;;;25.30;65.20;;;;;;4991733;28;87866;-21
2021/08/22 12:28:55;;;;;;;6.10;3.08;;;25.40;65.30;;;;;;4991166;28;87985;-15
2021/08/22 12:31:30;;;;;;;7.22;3.33;;;25.30;65.30;;;;;;4992846;28;87504;-22
2021/08/22 12:33:55;;;;;;;6.82;3.67;;;25.40;65.30;;;;;;4992570;28;87740;-18
2021/08/22 12:36:33;;;;;;;5.38;3.10;;;25.40;65.30;;;;;;4992310;28;87903;-24
2021/08/22 12:38:59;;;;;;;5.47;3.10;;;25.40;65.20;;;;;;4993032;28;87515;-20
2021/08/22 12:41:31;;;;;;;5.97;3.03;;;25.40;65.20;;;;;;4992526;28;91101;-15
2021/08/22 12:43:58;;;;;;;6.88;3.58;;;25.40;65.20;;;;;;4991322;28;90447;-18
2021/08/22 12:46:25;;;;;;;5.28;3.30;;;25.30;65.10;;;;;;4992139;28;88183;-20
2021/08/22 12:48:52;;;;;;;6.60;3.08;;;25.40;65.20;;;;;;4992803;28;87858;-21
2021/08/22 12:51:19;;;;;;;7.85;3.25;;;25.40;65.10;;;;;;4992888;28;87623;-29
2021/08/22 12:53:44;;;;;;;7.75;3.72;;;25.40;65.10;;;;;;4992878;28;87818;-15
2021/08/22 12:56:10;;;;;;;7.63;3.42;;;25.40;65.20;;;;;;4991100;28;87972;-17
2021/08/22 12:58:35;;;;;;;6.13;3.20;;;25.40;65.30;;;;;;4991167;28;90227;-15